createdAt,value
2023-01-10T00:04:28.100Z,998.00
2023-01-10T00:09:28.024Z,998.00
2023-01-10T00:14:27.946Z,999.00
2023-01-10T00:19:27.884Z,999.00
2023-01-10T00:24:27.817Z,999.00
2023-01-10T00:29:27.785Z,999.00
2023-01-10T00:34:27.652Z,999.00
2023-01-10T00:39:27.639Z,999.00
2023-01-10T00:44:27.532Z,999.00
2023-01-10T00:49:27.488Z,999.00
2023-01-10T00:54:27.382Z,999.00
2023-01-10T00:59:29.148Z,1000.00
2023-01-10T01:04:27.244Z,1000.00
2023-01-10T01:09:53.835Z,1000.00
2023-01-10T01:14:46.071Z,1000.00
2023-01-10T01:19:45.993Z,1000.00
2023-01-10T01:24:45.931Z,1000.00
2023-01-10T01:29:45.869Z,1000.00
2023-01-10T01:34:45.799Z,1000.00
2023-01-10T01:39:45.700Z,1000.00
2023-01-10T01:44:45.659Z,1001.00
2023-01-10T01:49:45.583Z,1001.00
2023-01-10T01:54:45.544Z,1001.00
2023-01-10T01:59:45.447Z,1001.00
2023-01-10T02:04:45.399Z,1001.00
2023-01-10T02:09:45.313Z,1001.00
2023-01-10T02:14:45.264Z,1001.00
2023-01-10T02:19:45.202Z,1001.00
2023-01-10T02:24:45.127Z,1001.00
2023-01-10T02:29:45.029Z,1001.00
2023-01-10T02:34:45.014Z,1001.00
2023-01-10T02:39:44.900Z,1001.00
2023-01-10T02:44:44.858Z,1001.00
2023-01-10T02:49:44.795Z,1001.00
2023-01-10T02:54:44.709Z,1001.00
2023-01-10T02:59:44.648Z,1002.00
2023-01-10T03:04:44.624Z,1002.00
2023-01-10T03:09:44.524Z,1002.00
2023-01-10T03:14:44.465Z,1002.00
2023-01-10T03:19:44.393Z,1002.00
2023-01-10T03:24:44.329Z,1002.00
2023-01-10T03:29:44.232Z,1002.00
2023-01-10T03:34:44.197Z,1002.00
2023-01-10T03:39:44.113Z,1002.00
2023-01-10T03:44:44.078Z,1002.00
2023-01-10T03:49:43.990Z,1002.00
2023-01-10T03:54:43.919Z,1002.00
2023-01-10T03:59:43.847Z,1002.00
2023-01-10T04:04:43.797Z,1002.00
2023-01-10T04:09:43.693Z,1002.00
2023-01-10T04:14:43.644Z,1003.00
2023-01-10T04:19:43.570Z,1003.00
2023-01-10T04:24:43.515Z,1003.00
2023-01-10T04:29:43.434Z,1003.00
2023-01-10T04:34:43.398Z,1003.00
2023-01-10T04:39:43.291Z,1003.00
2023-01-10T04:44:43.255Z,1003.00
2023-01-10T04:49:43.179Z,1003.00
2023-01-10T04:54:43.113Z,1003.00
2023-01-10T04:59:43.029Z,1003.00
2023-01-10T05:04:42.990Z,1003.00
2023-01-10T05:09:42.913Z,1003.00
2023-01-10T05:14:42.856Z,1003.00
2023-01-10T05:19:57.388Z,1003.00
2023-01-10T05:24:49.775Z,1004.00
2023-01-10T05:29:49.749Z,1004.00
2023-01-10T05:34:49.671Z,1004.00
2023-01-10T05:39:49.607Z,1004.00
2023-01-10T05:44:49.515Z,1004.00
2023-01-10T05:49:49.504Z,1004.00
2023-01-10T05:54:49.378Z,1004.00
2023-01-10T05:59:49.339Z,1004.00
2023-01-10T06:04:49.265Z,1004.00
2023-01-10T06:09:49.209Z,1004.00
2023-01-10T06:14:49.123Z,1004.00
2023-01-10T06:19:49.089Z,1004.00
2023-01-10T06:24:48.987Z,1004.00
2023-01-10T06:29:48.934Z,1004.00
2023-01-10T06:34:48.864Z,1004.00
2023-01-10T06:39:48.797Z,1004.00
2023-01-10T06:44:48.815Z,1004.00
2023-01-10T06:49:48.660Z,1005.00
2023-01-10T06:54:48.612Z,1005.00
2023-01-10T06:59:48.552Z,1005.00
2023-01-10T07:04:48.493Z,1005.00
2023-01-10T07:09:48.415Z,1005.00
2023-01-10T07:14:48.327Z,1005.00
2023-01-10T07:19:48.270Z,1005.00
2023-01-10T07:24:48.229Z,1005.00
2023-01-10T07:29:48.151Z,1005.00
2023-01-10T07:34:48.057Z,1005.00
2023-01-10T07:39:48.022Z,1005.00
2023-01-10T07:44:49.471Z,1005.00
2023-01-10T07:49:47.892Z,1006.00
2023-01-10T07:54:47.813Z,1006.00
2023-01-10T07:59:47.761Z,1006.00
2023-01-10T08:04:47.672Z,1006.00
2023-01-10T08:09:47.639Z,1006.00
2023-01-10T08:14:47.564Z,1006.00
2023-01-10T08:19:47.503Z,1006.00
2023-01-10T08:24:47.407Z,1006.00
2023-01-10T08:29:47.366Z,1006.00
2023-01-10T08:34:47.245Z,1006.00
2023-01-10T08:39:47.234Z,1006.00
2023-01-10T08:44:47.138Z,1006.00
2023-01-10T08:49:47.068Z,1006.00
2023-01-10T08:54:47.005Z,1006.00
2023-01-10T08:59:46.948Z,1006.00
2023-01-10T09:04:46.844Z,1006.00
2023-01-10T09:09:46.812Z,1006.00
2023-01-10T09:14:46.753Z,1006.00
2023-01-10T09:19:46.679Z,1006.00
2023-01-10T09:24:46.607Z,1007.00
2023-01-10T09:29:46.554Z,1007.00
2023-01-10T09:34:46.452Z,1007.00
2023-01-10T09:39:46.411Z,1007.00
2023-01-10T09:44:46.342Z,1007.00
2023-01-10T09:49:46.255Z,1007.00
2023-01-10T09:54:46.188Z,1007.00
2023-01-10T09:59:46.138Z,1007.00
2023-01-10T10:04:46.065Z,1007.00
2023-01-10T10:09:46.014Z,1007.00
2023-01-10T10:14:45.917Z,1007.00
2023-01-10T10:19:45.874Z,1007.00
2023-01-10T10:24:45.793Z,1007.00
2023-01-10T10:29:45.741Z,1007.00
2023-01-10T10:34:45.646Z,1007.00
2023-01-10T10:39:45.583Z,1007.00
2023-01-10T10:44:45.526Z,1007.00
2023-01-10T10:49:45.498Z,1007.00
2023-01-10T10:54:47.633Z,1007.00
2023-01-10T10:59:45.356Z,1007.00
2023-01-10T11:04:45.275Z,1007.00
2023-01-10T11:09:45.188Z,1007.00
2023-01-10T11:14:45.124Z,1007.00
2023-01-10T11:19:45.043Z,1007.00
2023-01-10T11:24:44.990Z,1007.00
2023-01-10T11:29:44.918Z,1006.00
2023-01-10T11:34:44.839Z,1006.00
2023-01-10T11:39:44.775Z,1006.00
2023-01-10T11:44:44.702Z,1006.00
2023-01-10T11:49:44.657Z,1006.00
2023-01-10T11:54:44.597Z,1006.00
2023-01-10T11:59:44.520Z,1006.00
2023-01-10T12:04:44.433Z,1006.00
2023-01-10T12:09:44.444Z,1006.00
2023-01-10T12:14:44.352Z,1006.00
2023-01-10T12:19:44.260Z,1006.00
2023-01-10T12:24:44.267Z,1006.00
2023-01-10T12:29:44.147Z,1006.00
2023-01-10T12:34:44.064Z,1006.00
2023-01-10T12:39:43.981Z,1006.00
2023-01-10T12:44:43.930Z,1006.00
2023-01-10T12:49:43.867Z,1006.00
2023-01-10T12:54:43.739Z,1006.00
2023-01-10T12:59:43.719Z,1006.00
2023-01-10T13:04:43.649Z,1006.00
2023-01-10T13:09:43.548Z,1006.00
2023-01-10T13:14:43.545Z,1006.00
2023-01-10T13:19:43.477Z,1006.00
2023-01-10T13:24:43.398Z,1006.00
2023-01-10T13:29:43.282Z,1006.00
2023-01-10T13:34:43.260Z,1006.00
2023-01-10T13:39:43.165Z,1006.00
2023-01-10T13:44:43.091Z,1006.00
2023-01-10T13:49:43.048Z,1006.00
2023-01-10T13:54:42.990Z,1006.00
2023-01-10T13:59:42.926Z,1006.00
2023-01-10T14:04:42.907Z,1006.00
2023-01-10T14:09:42.773Z,1006.00
2023-01-10T14:14:42.709Z,1006.00
2023-01-10T14:19:42.636Z,1006.00
2023-01-10T14:24:42.579Z,1006.00
2023-01-10T14:29:42.493Z,1005.00
2023-01-10T14:34:42.448Z,1005.00
2023-01-10T14:39:42.449Z,1005.00
2023-01-10T14:44:43.106Z,1005.00
2023-01-10T14:49:42.268Z,1005.00
2023-01-10T14:54:42.181Z,1005.00
2023-01-10T14:59:42.076Z,1005.00
2023-01-10T15:04:42.080Z,1005.00
2023-01-10T15:09:42.017Z,1005.00
2023-01-10T15:14:41.916Z,1005.00
2023-01-10T15:19:41.822Z,1005.00
2023-01-10T15:24:41.796Z,1005.00
2023-01-10T15:29:43.699Z,1004.00
2023-01-10T15:34:41.667Z,1004.00
2023-01-10T15:39:41.586Z,1004.00
2023-01-10T15:44:41.498Z,1004.00
2023-01-10T15:49:41.440Z,1004.00
2023-01-10T15:54:41.368Z,1004.00
2023-01-10T15:59:41.289Z,1004.00
2023-01-10T16:04:41.267Z,1004.00
2023-01-10T16:09:41.225Z,1004.00
2023-01-10T16:14:41.172Z,1004.00
2023-01-10T16:19:41.039Z,1004.00
2023-01-10T16:24:40.985Z,1004.00
2023-01-10T16:29:40.895Z,1004.00
2023-01-10T16:34:40.866Z,1004.00
2023-01-10T16:39:40.739Z,1004.00
2023-01-10T16:44:40.716Z,1004.00
2023-01-10T16:49:40.637Z,1004.00
2023-01-10T16:54:40.584Z,1003.00
2023-01-10T16:59:40.496Z,1003.00
2023-01-10T17:04:40.467Z,1003.00
2023-01-10T17:09:40.377Z,1003.00
2023-01-10T17:14:40.333Z,1003.00
2023-01-10T17:19:40.240Z,1003.00
2023-01-10T17:24:40.142Z,1003.00
2023-01-10T17:29:40.128Z,1003.00
2023-01-10T17:34:40.075Z,1003.00
2023-01-10T17:39:40.001Z,1003.00
2023-01-10T17:44:39.926Z,1003.00
2023-01-10T17:49:39.817Z,1003.00
2023-01-10T17:54:39.745Z,1003.00
2023-01-10T17:59:39.689Z,1003.00
2023-01-10T18:04:39.633Z,1003.00
2023-01-10T18:09:39.582Z,1003.00
2023-01-10T18:14:39.496Z,1003.00
2023-01-10T18:19:39.411Z,1003.00
2023-01-10T18:24:39.403Z,1003.00
2023-01-10T18:29:39.288Z,1003.00
2023-01-10T18:34:39.247Z,1003.00
2023-01-10T18:39:39.200Z,1003.00
2023-01-10T18:44:39.129Z,1003.00
2023-01-10T18:49:39.082Z,1003.00
2023-01-10T18:54:38.953Z,1003.00
2023-01-10T18:59:38.883Z,1003.00
2023-01-10T19:04:38.869Z,1003.00
2023-01-10T19:09:38.760Z,1003.00
2023-01-10T19:14:38.752Z,1003.00
2023-01-10T19:19:38.691Z,1003.00
2023-01-10T19:24:38.572Z,1003.00
2023-01-10T19:29:38.500Z,1003.00
2023-01-10T19:34:39.274Z,1003.00
2023-01-10T19:39:38.360Z,1003.00
2023-01-10T19:44:38.299Z,1003.00
2023-01-10T19:49:38.262Z,1002.00
2023-01-10T19:54:38.166Z,1002.00
2023-01-10T19:59:38.083Z,1002.00
2023-01-10T20:04:38.025Z,1002.00
2023-01-10T20:09:37.964Z,1002.00
2023-01-10T20:14:37.908Z,1002.00
2023-01-10T20:19:37.855Z,1002.00
2023-01-10T20:24:37.766Z,1002.00
2023-01-10T20:29:37.676Z,1002.00
2023-01-10T20:34:37.665Z,1002.00
2023-01-10T20:39:37.554Z,1002.00
2023-01-10T20:44:37.521Z,1002.00
2023-01-10T20:49:38.385Z,1002.00
2023-01-10T20:54:37.350Z,1002.00
2023-01-10T20:59:37.296Z,1002.00
2023-01-10T21:04:37.230Z,1002.00
2023-01-10T21:09:37.183Z,1002.00
2023-01-10T21:14:37.125Z,1002.00
2023-01-10T21:19:37.019Z,1002.00
2023-01-10T21:24:36.988Z,1002.00
2023-01-10T21:29:36.943Z,1002.00
2023-01-10T21:34:36.837Z,1001.00
2023-01-10T21:39:36.746Z,1001.00
2023-01-10T21:44:36.693Z,1001.00
2023-01-10T21:49:36.614Z,1001.00
2023-01-10T21:54:36.568Z,1001.00
2023-01-10T21:59:36.521Z,1001.00
2023-01-10T22:04:36.442Z,1001.00
2023-01-10T22:09:36.353Z,1001.00
2023-01-10T22:14:36.312Z,1001.00
2023-01-10T22:19:36.221Z,1001.00
2023-01-10T22:24:36.219Z,1001.00
2023-01-10T22:29:36.086Z,1001.00
2023-01-10T22:34:36.035Z,1001.00
2023-01-10T22:39:36.021Z,1001.00
2023-01-10T22:44:35.910Z,1001.00
2023-01-10T22:49:35.823Z,1001.00
2023-01-10T22:54:35.758Z,1001.00
2023-01-10T22:59:35.751Z,1001.00
2023-01-10T23:04:35.614Z,1001.00
2023-01-10T23:09:35.549Z,1001.00
2023-01-10T23:14:35.498Z,1000.00
2023-01-10T23:19:35.396Z,1000.00
2023-01-10T23:24:35.366Z,1000.00
2023-01-10T23:29:35.294Z,1000.00
2023-01-10T23:34:35.234Z,1000.00
2023-01-10T23:39:35.162Z,1000.00
2023-01-10T23:44:35.081Z,1000.00
2023-01-10T23:49:35.006Z,1000.00
2023-01-10T23:54:34.960Z,1000.00
2023-01-10T23:59:34.884Z,1000.00
